East Braintree, Massachusetts
Current Conditions -  °F | °C
As of 12:53 AM on Wednesday 22 Oct 2014 (Local Time) from KOWD Reporting Station
Overcast Overcast  
Wind Chill: 12°   Ceiling: 500
Heat Index: 12°   Visibility: 10mi
Dew Point: 11°   Wind: 5mph
Humidity: 93%   Direction: NA
Pressure: 29.98"   Gusts: NA
Location:  42.2036°N, 71.0017°W
Report Text: KOWD 220453Z AUTO VRB04KT 10SM OVC005 12/11 A2998 RMK AO2 SLP151 T01170106 401720039
Loading
Personal Weather Stations






























Interactive Weather Map
Tropical Storm Tracking
New forecast layout! Learn more

10-Day Weather Forecast

Advertisements
Track Severe Weather on mobile